createdAt,value
2018-06-22T00:04:52.035Z,76.80
2018-06-22T00:07:20.539Z,76.90
2018-06-22T00:09:49.346Z,77.10
2018-06-22T00:12:17.989Z,77.10
2018-06-22T00:14:46.757Z,77.30
2018-06-22T00:17:15.162Z,77.30
2018-06-22T00:19:43.597Z,77.10
2018-06-22T00:22:11.972Z,77.20
2018-06-22T00:24:40.343Z,77.30
2018-06-22T00:27:09.291Z,77.80
2018-06-22T00:29:37.712Z,77.70
2018-06-22T00:32:06.344Z,78.10
2018-06-22T00:34:34.769Z,78.20
2018-06-22T00:37:03.522Z,78.30
2018-06-22T00:39:32.017Z,78.30
2018-06-22T00:42:01.101Z,78.40
2018-06-22T00:44:29.480Z,78.30
2018-06-22T00:46:57.986Z,78.30
2018-06-22T00:51:55.068Z,78.50
2018-06-22T00:54:23.469Z,78.80
2018-06-22T00:56:51.931Z,78.20
2018-06-22T00:59:20.629Z,78.30
2018-06-22T01:01:49.372Z,78.20
2018-06-22T01:04:18.479Z,78.20
2018-06-22T01:06:46.930Z,78.10
2018-06-22T01:09:15.408Z,78.00
2018-06-22T01:11:43.900Z,78.00
2018-06-22T01:14:12.597Z,78.60
2018-06-22T01:16:41.021Z,78.00
2018-06-22T01:19:09.667Z,77.80
2018-06-22T01:21:38.101Z,77.90
2018-06-22T01:24:06.881Z,78.00
2018-06-22T01:26:36.171Z,77.80
2018-06-22T01:29:10.331Z,77.80
2018-06-22T01:31:38.701Z,78.00
2018-06-22T01:34:08.400Z,77.90
2018-06-22T01:36:36.802Z,78.30
2018-06-22T01:39:07.521Z,78.20
2018-06-22T01:41:35.931Z,78.20
2018-06-22T01:44:04.846Z,78.30
2018-06-22T01:46:33.600Z,78.50
2018-06-22T01:49:02.115Z,78.50
2018-06-22T01:51:30.529Z,78.50
2018-06-22T01:53:59.561Z,78.60
2018-06-22T01:56:27.922Z,78.40
2018-06-22T01:58:56.346Z,78.30
2018-06-22T02:01:24.712Z,78.40
2018-06-22T02:03:53.289Z,78.30
2018-06-22T02:06:21.676Z,78.30
2018-06-22T02:08:50.079Z,78.40
2018-06-22T02:11:18.468Z,79.10
2018-06-22T02:13:47.003Z,79.40
2018-06-22T02:16:15.893Z,79.50
2018-06-22T02:18:44.356Z,80.00
2018-06-22T02:21:12.760Z,80.20
2018-06-22T02:23:41.765Z,80.30
2018-06-22T02:26:10.521Z,80.30
2018-06-22T02:28:38.947Z,80.70
2018-06-22T02:31:07.664Z,80.70
2018-06-22T02:33:36.097Z,80.90
2018-06-22T02:36:04.542Z,80.90
2018-06-22T02:38:32.989Z,80.70
2018-06-22T02:43:29.896Z,80.30
2018-06-22T02:45:58.312Z,80.60
2018-06-22T02:48:26.667Z,80.40
2018-06-22T02:50:55.109Z,80.30
2018-06-22T02:53:23.487Z,80.20
2018-06-22T02:55:51.874Z,80.30
2018-06-22T02:58:20.248Z,80.20
2018-06-22T03:00:48.677Z,80.10
2018-06-22T03:03:17.073Z,80.10
2018-06-22T03:05:45.481Z,80.20
2018-06-22T03:08:13.847Z,80.20
2018-06-22T03:13:10.393Z,80.20
2018-06-22T03:15:38.834Z,80.20
2018-06-22T03:18:07.240Z,80.30
2018-06-22T03:20:35.677Z,80.40
2018-06-22T03:23:04.130Z,80.30
2018-06-22T03:25:32.580Z,80.30
2018-06-22T03:28:00.968Z,80.40
2018-06-22T03:30:29.372Z,80.20
2018-06-22T03:32:57.775Z,80.20
2018-06-22T03:35:26.208Z,80.20
2018-06-22T03:37:54.920Z,80.20
2018-06-22T03:40:23.373Z,80.10
2018-06-22T03:42:51.750Z,80.10
2018-06-22T03:45:20.182Z,80.00
2018-06-22T03:47:48.542Z,80.00
2018-06-22T03:52:45.048Z,80.20
2018-06-22T03:55:13.472Z,80.30
2018-06-22T04:00:09.966Z,81.20
2018-06-22T04:02:38.411Z,81.00
2018-06-22T04:07:34.917Z,81.70
2018-06-22T04:10:03.379Z,81.80
2018-06-22T04:12:31.805Z,82.10
2018-06-22T04:15:00.201Z,82.30
2018-06-22T04:17:28.618Z,82.50
2018-06-22T04:19:56.964Z,83.10
2018-06-22T04:24:53.496Z,83.60
2018-06-22T04:27:21.889Z,83.70
2018-06-22T04:29:50.308Z,84.20
2018-06-22T04:32:18.676Z,84.40
2018-06-22T04:34:47.024Z,84.80
2018-06-22T04:37:15.408Z,84.80
2018-06-22T04:39:43.768Z,85.20
2018-06-22T04:42:12.137Z,85.30
2018-06-22T04:44:40.492Z,85.40
2018-06-22T04:47:08.876Z,85.80
2018-06-22T04:49:37.244Z,86.30
2018-06-22T04:52:05.651Z,86.50
2018-06-22T04:54:33.995Z,86.30
2018-06-22T04:57:02.363Z,86.40
2018-06-22T04:59:30.707Z,86.80
2018-06-22T05:01:59.083Z,86.80
2018-06-22T05:04:27.425Z,87.00
2018-06-22T05:06:55.898Z,87.10
2018-06-22T05:09:24.281Z,87.30
2018-06-22T05:11:52.732Z,87.60
2018-06-22T05:19:17.315Z,87.30
2018-06-22T05:21:45.671Z,87.60
2018-06-22T05:24:14.037Z,87.70
2018-06-22T05:26:42.415Z,87.90
2018-06-22T05:29:10.811Z,88.40
2018-06-22T05:31:39.159Z,87.80
2018-06-22T05:34:08.584Z,87.70
2018-06-22T05:36:37.261Z,88.10
2018-06-22T05:39:08.124Z,88.10
2018-06-22T05:41:36.563Z,87.80
2018-06-22T05:44:04.949Z,87.60
2018-06-22T05:46:33.279Z,87.40
2018-06-22T05:49:01.723Z,87.70
2018-06-22T05:56:26.229Z,87.50
2018-06-22T05:58:54.688Z,87.30
2018-06-22T06:01:23.025Z,87.30
2018-06-22T06:03:51.427Z,87.20
2018-06-22T06:06:19.757Z,87.40
2018-06-22T06:13:44.370Z,86.40
2018-06-22T06:16:12.688Z,86.60
2018-06-22T06:18:41.052Z,86.80
2018-06-22T06:21:09.379Z,86.70
2018-06-22T06:23:37.726Z,86.80
2018-06-22T06:26:06.103Z,86.50
2018-06-22T06:28:34.465Z,87.00
2018-06-22T06:31:02.800Z,87.00
2018-06-22T06:33:31.169Z,87.10
2018-06-22T06:35:59.527Z,86.90
2018-06-22T06:38:27.888Z,87.20
2018-06-22T06:40:56.260Z,87.20
2018-06-22T06:45:52.671Z,87.00
2018-06-22T06:48:21.025Z,87.10
2018-06-22T06:50:49.365Z,87.00
2018-06-22T06:53:17.720Z,87.00
2018-06-22T06:55:46.068Z,87.30
2018-06-22T06:58:14.448Z,87.20
2018-06-22T07:00:42.780Z,87.40
2018-06-22T07:03:11.105Z,87.00
2018-06-22T07:05:39.472Z,87.10
2018-06-22T07:08:07.817Z,87.00
2018-06-22T07:15:36.680Z,87.20
2018-06-22T07:18:05.044Z,87.20
2018-06-22T07:20:33.398Z,86.80
2018-06-22T07:23:01.818Z,86.20
2018-06-22T07:25:30.268Z,85.40
2018-06-22T07:27:58.624Z,85.10
2018-06-22T07:30:26.982Z,84.40
2018-06-22T07:32:55.599Z,85.00
2018-06-22T07:37:52.128Z,83.20
2018-06-22T07:40:20.964Z,83.70
2018-06-22T07:42:49.320Z,83.00
2018-06-22T07:45:17.712Z,82.30
2018-06-22T07:47:46.041Z,82.30
2018-06-22T07:50:14.398Z,84.00
2018-06-22T07:52:42.741Z,82.80
2018-06-22T07:57:39.196Z,80.80
2018-06-22T08:02:35.679Z,81.10
2018-06-22T08:05:04.068Z,80.50
2018-06-22T08:07:32.399Z,80.30
2018-06-22T08:12:29.230Z,81.40
2018-06-22T08:14:57.588Z,81.70
2018-06-22T08:17:25.946Z,82.30
2018-06-22T08:19:54.314Z,82.60
2018-06-22T08:22:22.658Z,82.90
2018-06-22T08:24:51.013Z,83.40
2018-06-22T08:27:19.344Z,83.80
2018-06-22T08:32:15.768Z,83.60
2018-06-22T08:34:44.128Z,82.10
2018-06-22T08:37:12.478Z,82.40
2018-06-22T08:39:40.853Z,81.80
2018-06-22T08:42:09.206Z,81.00
2018-06-22T08:44:37.548Z,81.20
2018-06-22T08:47:05.956Z,80.30
2018-06-22T08:52:02.413Z,78.00
2018-06-22T08:54:30.756Z,78.30
2018-06-22T08:56:59.116Z,77.80
2018-06-22T08:59:27.460Z,78.00
2018-06-22T09:01:55.824Z,76.70
2018-06-22T09:04:24.164Z,76.30
2018-06-22T09:06:52.520Z,74.80
2018-06-22T09:09:20.869Z,74.50
2018-06-22T09:11:49.288Z,74.70
2018-06-22T09:14:17.633Z,73.60
2018-06-22T09:16:46.005Z,72.90
2018-06-22T09:19:14.352Z,73.60
2018-06-22T09:21:42.756Z,74.30
2018-06-22T09:24:11.076Z,73.40
2018-06-22T09:26:39.432Z,74.20
2018-06-22T09:31:36.064Z,72.60
2018-06-22T09:34:04.410Z,72.10
2018-06-22T09:36:32.868Z,73.00
2018-06-22T09:39:01.212Z,74.30
2018-06-22T09:41:29.570Z,75.20
2018-06-22T09:43:57.911Z,75.00
2018-06-22T09:46:26.271Z,76.40
2018-06-22T09:48:54.827Z,76.80
2018-06-22T09:51:23.181Z,76.40
2018-06-22T09:53:51.521Z,75.80
2018-06-22T09:56:19.888Z,75.60
2018-06-22T09:58:48.211Z,76.00
2018-06-22T10:01:16.577Z,75.10
2018-06-22T10:03:44.909Z,73.70
2018-06-22T10:06:13.283Z,72.30
2018-06-22T10:08:41.612Z,73.20
2018-06-22T10:11:09.976Z,72.70
2018-06-22T10:13:38.345Z,71.60
2018-06-22T10:16:06.716Z,71.70
2018-06-22T10:23:31.245Z,75.00
2018-06-22T10:28:27.690Z,76.30
2018-06-22T10:33:26.336Z,76.40
2018-06-22T10:35:54.696Z,74.90
2018-06-22T10:38:23.051Z,75.20
2018-06-22T10:40:51.439Z,75.30
2018-06-22T10:45:47.942Z,75.10
2018-06-22T10:48:16.290Z,74.50
2018-06-22T10:50:44.627Z,74.30
2018-06-22T10:53:13.032Z,74.90
2018-06-22T10:55:41.367Z,74.40
2018-06-22T10:58:09.776Z,72.90
2018-06-22T11:03:06.227Z,69.00
2018-06-22T11:05:34.560Z,68.80
2018-06-22T11:08:02.944Z,68.30
2018-06-22T11:10:31.307Z,67.20
2018-06-22T11:12:59.694Z,68.20
2018-06-22T11:15:28.019Z,68.40
2018-06-22T11:17:56.408Z,69.10
2018-06-22T11:20:24.855Z,69.20
2018-06-22T11:22:53.412Z,70.30
2018-06-22T11:25:22.776Z,70.20
2018-06-22T11:32:47.286Z,65.80
2018-06-22T11:35:15.621Z,65.50
2018-06-22T11:37:43.977Z,67.20
2018-06-22T11:40:12.325Z,69.10
2018-06-22T11:42:40.681Z,70.50
2018-06-22T11:45:09.031Z,71.10
2018-06-22T11:47:37.396Z,70.90
2018-06-22T11:50:05.788Z,70.30
2018-06-22T11:52:34.160Z,71.10
2018-06-22T11:55:02.488Z,70.70
2018-06-22T11:57:30.868Z,71.90
2018-06-22T11:59:59.569Z,71.90
2018-06-22T12:02:28.651Z,71.40
2018-06-22T12:04:56.994Z,70.50
2018-06-22T12:07:25.495Z,69.40
2018-06-22T12:09:55.028Z,69.50
2018-06-22T12:12:24.948Z,69.40
2018-06-22T12:14:54.740Z,69.10
2018-06-22T12:17:24.675Z,68.80
2018-06-22T12:19:54.302Z,68.50
2018-06-22T12:22:24.253Z,67.60
2018-06-22T12:24:52.592Z,64.60
2018-06-22T12:29:49.100Z,63.20
2018-06-22T12:32:17.486Z,62.20
2018-06-22T12:34:45.853Z,61.80
2018-06-22T12:37:14.190Z,60.80
2018-06-22T12:39:42.601Z,60.60
2018-06-22T12:42:10.912Z,59.90
2018-06-22T12:44:39.281Z,59.20
2018-06-22T12:47:07.621Z,59.60
2018-06-22T12:49:35.972Z,58.60
2018-06-22T12:54:32.437Z,58.50
2018-06-22T12:57:00.813Z,58.20
2018-06-22T13:01:57.252Z,59.80
2018-06-22T13:04:25.616Z,59.40
2018-06-22T13:06:53.960Z,59.20
2018-06-22T13:09:22.316Z,59.20
2018-06-22T13:11:50.689Z,58.00
2018-06-22T13:14:19.222Z,57.80
2018-06-22T13:16:47.567Z,58.20
2018-06-22T13:19:15.933Z,57.00
2018-06-22T13:21:49.854Z,56.10
2018-06-22T13:24:18.637Z,56.10
2018-06-22T13:26:47.048Z,54.90
2018-06-22T13:29:15.453Z,54.50
2018-06-22T13:31:43.964Z,54.80
2018-06-22T13:34:13.176Z,55.20
2018-06-22T13:36:41.516Z,55.50
2018-06-22T13:39:12.908Z,55.40
2018-06-22T13:41:41.763Z,54.90
2018-06-22T13:44:10.481Z,54.50
2018-06-22T13:46:39.656Z,53.20
2018-06-22T13:49:08.802Z,52.00
2018-06-22T13:51:37.753Z,51.50
2018-06-22T13:54:06.280Z,51.70
2018-06-22T13:56:35.228Z,50.40
2018-06-22T13:59:03.665Z,50.20
2018-06-22T14:01:33.099Z,50.40
2018-06-22T14:04:06.716Z,49.50
2018-06-22T14:09:11.610Z,48.70
2018-06-22T14:11:40.448Z,48.90
2018-06-22T14:14:08.823Z,49.40
2018-06-22T14:16:37.259Z,50.30
2018-06-22T14:19:05.836Z,51.40
2018-06-22T14:21:34.588Z,52.40
2018-06-22T14:24:02.957Z,54.00
2018-06-22T14:26:31.289Z,56.20
2018-06-22T14:28:59.748Z,57.30
2018-06-22T14:31:28.136Z,58.80
2018-06-22T14:33:56.481Z,59.20
2018-06-22T14:36:25.094Z,57.50
2018-06-22T14:38:53.748Z,57.00
2018-06-22T14:41:22.127Z,56.40
2018-06-22T14:43:50.488Z,55.20
2018-06-22T14:46:18.841Z,55.80
2018-06-22T14:48:47.206Z,55.70
2018-06-22T14:51:15.561Z,54.70
2018-06-22T14:56:22.890Z,52.70
2018-06-22T14:58:56.556Z,51.80
2018-06-22T15:01:30.313Z,52.80
2018-06-22T15:04:03.945Z,51.80
2018-06-22T15:06:37.743Z,50.10
2018-06-22T15:09:08.219Z,49.30
2018-06-22T15:11:36.719Z,48.70
2018-06-22T15:14:05.368Z,48.50
2018-06-22T15:16:33.735Z,48.00
2018-06-22T15:19:02.068Z,48.40
2018-06-22T15:21:30.429Z,48.90
2018-06-22T15:23:58.768Z,49.80
2018-06-22T15:26:27.154Z,50.50
2018-06-22T15:28:55.515Z,50.80
2018-06-22T15:31:23.893Z,51.30
2018-06-22T15:33:57.699Z,51.40
2018-06-22T15:36:31.524Z,51.10
2018-06-22T15:39:05.231Z,50.30
2018-06-22T15:41:39.080Z,49.30
2018-06-22T15:44:12.800Z,47.50
2018-06-22T15:46:46.645Z,45.90
2018-06-22T15:49:20.175Z,45.00
2018-06-22T15:51:53.843Z,45.20
2018-06-22T15:54:27.507Z,44.30
2018-06-22T15:56:55.871Z,44.80
2018-06-22T16:01:52.287Z,43.90
2018-06-22T16:04:20.619Z,44.40
2018-06-22T16:06:49.002Z,44.30
2018-06-22T16:09:17.344Z,45.20
2018-06-22T16:11:45.728Z,45.70
2018-06-22T16:16:52.943Z,48.30
2018-06-22T16:22:00.134Z,49.80
2018-06-22T16:24:33.993Z,49.70
2018-06-22T16:27:10.033Z,49.00
2018-06-22T16:29:38.378Z,48.80
2018-06-22T16:32:06.892Z,47.90
2018-06-22T16:37:03.298Z,48.10
2018-06-22T16:39:31.634Z,47.60
2018-06-22T16:41:59.995Z,47.50
2018-06-22T16:44:28.360Z,47.60
2018-06-22T16:49:24.776Z,46.70
2018-06-22T16:51:53.131Z,46.20
2018-06-22T16:54:21.460Z,46.30
2018-06-22T16:56:49.799Z,46.60
2018-06-22T16:59:18.124Z,47.50
2018-06-22T17:04:16.106Z,47.40
2018-06-22T17:06:49.992Z,48.20
2018-06-22T17:09:23.527Z,48.50
2018-06-22T17:11:57.196Z,48.40
2018-06-22T17:14:31.040Z,48.30
2018-06-22T17:19:33.008Z,49.00
2018-06-22T17:22:01.349Z,50.10
2018-06-22T17:24:29.713Z,51.00
2018-06-22T17:26:58.060Z,50.80
2018-06-22T17:31:54.515Z,49.60
2018-06-22T17:34:22.880Z,49.50
2018-06-22T17:39:19.351Z,50.40
2018-06-22T17:41:47.693Z,51.10
2018-06-22T17:44:16.052Z,50.50
2018-06-22T17:46:44.392Z,50.90
2018-06-22T17:49:12.757Z,51.30
2018-06-22T17:51:41.096Z,51.90
2018-06-22T17:54:09.452Z,51.60
2018-06-22T17:56:37.767Z,50.80
2018-06-22T17:59:11.663Z,49.70
2018-06-22T18:01:45.352Z,49.40
2018-06-22T18:05:23.150Z,49.50
2018-06-22T18:07:51.508Z,50.10
2018-06-22T18:10:25.323Z,50.60
2018-06-22T18:12:55.642Z,51.10
2018-06-22T18:15:23.937Z,51.30
2018-06-22T18:17:52.339Z,51.20
2018-06-22T18:20:20.781Z,51.90
2018-06-22T18:22:49.175Z,52.60
2018-06-22T18:25:17.479Z,53.00
2018-06-22T18:27:45.836Z,52.90
2018-06-22T18:30:15.381Z,53.40
2018-06-22T18:32:43.741Z,53.60
2018-06-22T18:35:13.504Z,54.00
2018-06-22T18:42:39.027Z,54.90
2018-06-22T18:45:08.871Z,55.40
2018-06-22T18:47:37.227Z,55.70
2018-06-22T18:50:05.832Z,56.10
2018-06-22T18:52:39.692Z,56.90
2018-06-22T18:55:13.439Z,56.60
2018-06-22T19:00:20.879Z,56.80
2018-06-22T19:02:54.452Z,57.20
2018-06-22T19:05:22.809Z,56.90
2018-06-22T19:07:51.131Z,57.00
2018-06-22T19:10:19.493Z,57.10
2018-06-22T19:12:47.875Z,57.20
2018-06-22T19:15:16.239Z,57.40
2018-06-22T19:20:12.647Z,57.90
2018-06-22T19:22:41.037Z,58.20
2018-06-22T19:25:09.403Z,58.70
2018-06-22T19:27:37.832Z,58.50
2018-06-22T19:32:34.644Z,58.70
2018-06-22T19:35:08.458Z,58.90
2018-06-22T19:37:36.797Z,59.00
2018-06-22T19:40:05.273Z,59.30
2018-06-22T19:42:33.598Z,59.40
2018-06-22T19:45:07.251Z,59.30
2018-06-22T19:50:14.456Z,59.50
2018-06-22T19:52:48.833Z,59.60
2018-06-22T19:55:17.155Z,59.80
2018-06-22T19:57:45.479Z,60.00
2018-06-22T20:00:13.836Z,60.10
2018-06-22T20:02:43.140Z,60.40
2018-06-22T20:05:11.557Z,60.60
2018-06-22T20:07:39.911Z,60.60
2018-06-22T20:10:08.595Z,60.90
2018-06-22T20:12:37.240Z,61.20
2018-06-22T20:17:33.732Z,61.10
2018-06-22T20:20:02.113Z,61.20
2018-06-22T20:22:30.539Z,61.20
2018-06-22T20:25:04.464Z,61.10
2018-06-22T20:27:32.864Z,61.50
2018-06-22T20:30:01.260Z,61.50
2018-06-22T20:32:29.633Z,61.50
2018-06-22T20:35:03.312Z,61.70
2018-06-22T20:37:36.983Z,62.50
2018-06-22T20:40:10.744Z,61.80
2018-06-22T20:42:44.559Z,62.00
2018-06-22T20:45:18.200Z,62.00
2018-06-22T20:47:51.815Z,62.20
2018-06-22T20:50:25.671Z,62.50
2018-06-22T20:52:54.064Z,62.70
2018-06-22T20:55:22.407Z,62.90
2018-06-22T20:57:50.792Z,63.30
2018-06-22T21:00:19.135Z,63.20
2018-06-22T21:02:47.540Z,63.20
2018-06-22T21:05:15.951Z,63.40
2018-06-22T21:07:44.347Z,63.50
2018-06-22T21:10:12.741Z,63.60
2018-06-22T21:12:41.116Z,63.70
2018-06-22T21:15:09.451Z,63.90
2018-06-22T21:17:37.796Z,64.00
2018-06-22T21:20:06.124Z,64.00
2018-06-22T21:22:34.486Z,64.20
2018-06-22T21:25:02.849Z,64.30
2018-06-22T21:30:11.065Z,64.50
2018-06-22T21:32:44.923Z,64.70
2018-06-22T21:35:18.480Z,64.80
2018-06-22T21:37:52.133Z,65.00
2018-06-22T21:40:20.467Z,65.10
2018-06-22T21:42:48.831Z,65.30
2018-06-22T21:45:17.289Z,65.50
2018-06-22T21:47:45.683Z,65.80
2018-06-22T21:50:14.016Z,66.50
2018-06-22T21:52:42.535Z,66.10
2018-06-22T21:55:11.002Z,66.50
2018-06-22T21:57:39.559Z,66.80
2018-06-22T22:00:09.786Z,67.20
2018-06-22T22:02:38.246Z,67.50
2018-06-22T22:07:34.710Z,68.00
2018-06-22T22:10:03.096Z,68.30
2018-06-22T22:12:31.479Z,68.50
2018-06-22T22:14:59.800Z,68.80
2018-06-22T22:17:28.147Z,69.00
2018-06-22T22:19:56.512Z,69.00
2018-06-22T22:22:24.868Z,69.00
2018-06-22T22:29:49.354Z,69.30
2018-06-22T22:32:17.707Z,69.40
2018-06-22T22:34:46.071Z,69.50
2018-06-22T22:37:14.413Z,69.40
2018-06-22T22:39:42.756Z,69.30
2018-06-22T22:42:11.107Z,69.40
2018-06-22T22:44:39.605Z,69.40
2018-06-22T22:47:08.242Z,69.40
2018-06-22T22:49:36.908Z,69.40
2018-06-22T22:52:05.423Z,69.30
2018-06-22T22:57:02.387Z,69.60
2018-06-22T22:59:31.103Z,69.80
2018-06-22T23:01:59.598Z,70.00
2018-06-22T23:04:28.311Z,70.10
2018-06-22T23:06:56.924Z,70.30
2018-06-22T23:11:53.770Z,71.20
2018-06-22T23:16:50.853Z,71.10
2018-06-22T23:19:19.232Z,70.90
2018-06-22T23:21:47.561Z,71.10
2018-06-22T23:24:15.908Z,71.30
2018-06-22T23:26:44.247Z,71.40
2018-06-22T23:29:12.610Z,71.30
2018-06-22T23:31:40.939Z,71.40
2018-06-22T23:34:09.301Z,71.50
2018-06-22T23:36:37.607Z,71.60
2018-06-22T23:39:08.454Z,71.50
2018-06-22T23:41:36.908Z,71.60
2018-06-22T23:46:33.345Z,71.70
2018-06-22T23:49:01.713Z,71.80
2018-06-22T23:51:30.064Z,71.90
2018-06-22T23:53:58.419Z,71.90
2018-06-22T23:56:26.796Z,72.00
2018-06-22T23:58:55.236Z,72.00
